Darstellungsparameter: Aktuell verwendete Einstellungen:
Skalierung der Graphiken ... ?
xyx+y,   Skalierungsfaktor:      Skalierung: Modus: x, Faktor: 1
Darstellungszeitraum ... ?
Vom - - bis: - -   Zeitraum: 29.07.2016 - 29.07.2016
Min/Max/Avg-Anzeige ... ?
Zeige MMA aktuell
Zeige MMA Monat
Zeige MMA alles
Zeige --A aktuell
Zeige --A Monat
Zeige --A alles
Keine MMA-Anzeige
MMA:
Keine MMA-Graphiken
MMA-Basis: 29.07.2016 - 29.07.2016
Quicknavigation für Darstellung... ?
Tage:      1T, 2T, 3T, 5T -1T -2T -3T -5T +1T +2T +3T +5T
Wochen: 1W, 2W, 3W -1W -2W -3W +1W +2W +3W
Monate: 1M, 3M, 6M -1M -3M -6M +1M +3M +6M
Jahre:    1J, 3J, 5J, 10J -1J -3J -5J -10J +1J +3J +5J +10J
Nutze für die Darstellung ... ?
Originaldaten oder Mittelwerte auf ...
Stundenbasis Tagesbasis Wochenbasis
Monatsbasis Jahresbasis      Datenbasis: Original-Daten
Darstellen als:
Statistik (Auto) Statistik J:M      Darstellung:
Zur Graphik,    zurück zur Übersicht aller Sensoren.
 
Tabellarische Datenbersicht: ?
 
Sensor: Nr:Datum:Temp:Feuchte:Taupunkt:
Aussen-T/F 1 29-07-2016 00:00:00 18.4 C 93 % 17.25 C
2 29-07-2016 00:05:00 18.3 C 93 % 17.15 C
3 29-07-2016 00:10:00 18.3 C 93 % 17.15 C
4 29-07-2016 00:15:00 18.3 C 93 % 17.15 C
5 29-07-2016 00:20:00 18.4 C 93 % 17.25 C
6 29-07-2016 00:25:00 18.3 C 93 % 17.15 C
7 29-07-2016 00:30:00 18.3 C 93 % 17.15 C
8 29-07-2016 00:35:00 18.3 C 93 % 17.15 C
9 29-07-2016 00:40:00 18.2 C 93 % 17.05 C
10 29-07-2016 00:45:00 18.2 C 92 % 16.88 C
11 29-07-2016 00:50:00 18.1 C 92 % 16.78 C
12 29-07-2016 00:55:00 18.1 C 92 % 16.78 C
13 29-07-2016 01:00:00 17.9 C 92 % 16.58 C
14 29-07-2016 01:05:00 17.9 C 92 % 16.58 C
15 29-07-2016 01:10:00 17.8 C 92 % 16.48 C
16 29-07-2016 01:15:00 17.7 C 92 % 16.38 C
17 29-07-2016 01:20:00 17.6 C 92 % 16.28 C
18 29-07-2016 01:25:00 17.6 C 92 % 16.28 C
19 29-07-2016 01:30:00 17.4 C 92 % 16.09 C
20 29-07-2016 01:35:00 17.4 C 92 % 16.09 C
21 29-07-2016 01:40:00 17.3 C 92 % 15.99 C
22 29-07-2016 01:45:00 17.2 C 92 % 15.89 C
23 29-07-2016 01:50:00 17.2 C 92 % 15.89 C
24 29-07-2016 01:55:00 17.1 C 92 % 15.79 C
25 29-07-2016 02:00:00 16.9 C 92 % 15.59 C
Sensor: Nr:Datum:Temp:Feuchte:Taupunkt:
Aussen-T/F 26 29-07-2016 02:05:00 16.8 C 92 % 15.49 C
27 29-07-2016 02:10:00 16.7 C 92 % 15.39 C
28 29-07-2016 02:15:00 16.6 C 92 % 15.3 C
29 29-07-2016 02:20:00 16.5 C 92 % 15.2 C
30 29-07-2016 02:25:00 16.4 C 92 % 15.1 C
31 29-07-2016 02:30:00 16.3 C 92 % 15 C
32 29-07-2016 02:35:00 16.3 C 93 % 15.17 C
33 29-07-2016 02:40:00 16.2 C 93 % 15.07 C
34 29-07-2016 02:45:00 16.1 C 93 % 14.97 C
35 29-07-2016 02:50:00 16 C 93 % 14.87 C
36 29-07-2016 02:55:00 15.9 C 93 % 14.77 C
37 29-07-2016 03:00:00 15.9 C 93 % 14.77 C
38 29-07-2016 03:05:00 15.8 C 93 % 14.67 C
39 29-07-2016 03:10:00 15.8 C 93 % 14.67 C
40 29-07-2016 03:15:00 15.7 C 93 % 14.57 C
41 29-07-2016 03:20:00 15.6 C 93 % 14.47 C
42 29-07-2016 03:25:00 15.6 C 93 % 14.47 C
43 29-07-2016 03:30:00 15.5 C 93 % 14.37 C
44 29-07-2016 03:35:00 15.5 C 94 % 14.54 C
45 29-07-2016 03:40:00 15.6 C 94 % 14.64 C
46 29-07-2016 03:45:00 15.5 C 94 % 14.54 C
47 29-07-2016 03:50:00 15.5 C 94 % 14.54 C
48 29-07-2016 03:55:00 15.7 C 95 % 14.9 C
49 29-07-2016 04:00:00 15.8 C 95 % 15 C
50 29-07-2016 04:05:00 15.9 C 95 % 15.1 C
Sensor: Nr:Datum:Temp:Feuchte:Taupunkt:
Aussen-T/F 51 29-07-2016 04:10:00 16 C 95 % 15.2 C
52 29-07-2016 04:15:00 16.2 C 95 % 15.4 C
53 29-07-2016 04:20:00 16.2 C 95 % 15.4 C
54 29-07-2016 04:25:00 16.3 C 94 % 15.33 C
55 29-07-2016 04:30:00 16.3 C 94 % 15.33 C
56 29-07-2016 04:35:00 16.4 C 94 % 15.43 C
57 29-07-2016 04:40:00 16.4 C 94 % 15.43 C
58 29-07-2016 04:45:00 16.4 C 94 % 15.43 C
59 29-07-2016 04:50:00 16.4 C 94 % 15.43 C
60 29-07-2016 04:55:00 16.5 C 94 % 15.53 C
61 29-07-2016 05:00:00 16.6 C 94 % 15.63 C
62 29-07-2016 05:05:00 16.6 C 94 % 15.63 C
63 29-07-2016 05:10:00 16.6 C 94 % 15.63 C
64 29-07-2016 05:15:00 16.7 C 94 % 15.73 C
65 29-07-2016 05:20:00 16.7 C 94 % 15.73 C
66 29-07-2016 05:25:00 16.7 C 94 % 15.73 C
67 29-07-2016 05:30:00 16.7 C 94 % 15.73 C
68 29-07-2016 05:35:00 16.7 C 94 % 15.73 C
69 29-07-2016 05:40:00 16.7 C 94 % 15.73 C
70 29-07-2016 05:45:00 16.7 C 94 % 15.73 C
71 29-07-2016 05:50:00 16.7 C 94 % 15.73 C
72 29-07-2016 05:55:00 16.7 C 94 % 15.73 C
73 29-07-2016 06:00:00 16.7 C 94 % 15.73 C
74 29-07-2016 06:05:00 16.7 C 94 % 15.73 C
75 29-07-2016 06:10:00 16.7 C 94 % 15.73 C
Sensor: Nr:Datum:Temp:Feuchte:Taupunkt:
Aussen-T/F 76 29-07-2016 06:15:00 16.7 C 94 % 15.73 C
77 29-07-2016 06:20:00 16.7 C 94 % 15.73 C
78 29-07-2016 06:25:00 16.7 C 94 % 15.73 C
79 29-07-2016 06:30:00 16.6 C 94 % 15.63 C
80 29-07-2016 06:35:00 16.6 C 94 % 15.63 C
81 29-07-2016 06:40:00 16.6 C 94 % 15.63 C
82 29-07-2016 06:45:00 16.7 C 94 % 15.73 C
83 29-07-2016 06:50:00 16.7 C 95 % 15.9 C
84 29-07-2016 06:55:00 16.8 C 95 % 15.99 C
85 29-07-2016 07:00:00 16.8 C 95 % 15.99 C
86 29-07-2016 07:05:00 16.9 C 95 % 16.09 C
87 29-07-2016 07:10:00 16.9 C 95 % 16.09 C
88 29-07-2016 07:15:00 17 C 95 % 16.19 C
89 29-07-2016 07:20:00 17 C 95 % 16.19 C
90 29-07-2016 07:25:00 17 C 95 % 16.19 C
91 29-07-2016 07:30:00 17.1 C 95 % 16.29 C
92 29-07-2016 07:35:00 17.1 C 95 % 16.29 C
93 29-07-2016 07:40:00 17.1 C 95 % 16.29 C
94 29-07-2016 07:45:00 17.2 C 95 % 16.39 C
95 29-07-2016 07:50:00 17.1 C 95 % 16.29 C
96 29-07-2016 07:55:00 17.2 C 95 % 16.39 C
97 29-07-2016 08:00:00 17.2 C 95 % 16.39 C
98 29-07-2016 08:05:00 17.3 C 95 % 16.49 C
99 29-07-2016 08:10:00 17.4 C 95 % 16.59 C
100 29-07-2016 08:15:00 17.4 C 95 % 16.59 C
Sensor: Nr:Datum:Temp:Feuchte:Taupunkt:
Aussen-T/F 101 29-07-2016 08:20:00 17.4 C 95 % 16.59 C
102 29-07-2016 08:25:00 17.4 C 94 % 16.42 C
103 29-07-2016 08:30:00 17.4 C 94 % 16.42 C
104 29-07-2016 08:35:00 17.5 C 94 % 16.52 C
105 29-07-2016 08:40:00 17.6 C 94 % 16.62 C
106 29-07-2016 08:45:00 17.6 C 93 % 16.45 C
107 29-07-2016 08:50:00 17.7 C 93 % 16.55 C
108 29-07-2016 08:55:00 17.8 C 93 % 16.65 C
109 29-07-2016 09:00:00 17.9 C 92 % 16.58 C
110 29-07-2016 09:05:00 18 C 92 % 16.68 C
111 29-07-2016 09:10:00 18.2 C 91 % 16.71 C
112 29-07-2016 09:15:00 18.3 C 91 % 16.81 C
113 29-07-2016 09:20:00 18.3 C 90 % 16.63 C
114 29-07-2016 09:25:00 18.5 C 89 % 16.65 C
115 29-07-2016 09:30:00 18.7 C 89 % 16.85 C
116 29-07-2016 09:35:00 18.7 C 88 % 16.67 C
117 29-07-2016 09:40:00 18.8 C 87 % 16.59 C
118 29-07-2016 09:45:00 18.9 C 87 % 16.69 C
119 29-07-2016 09:50:00 19.1 C 87 % 16.89 C
120 29-07-2016 09:55:00 19.2 C 87 % 16.98 C
121 29-07-2016 10:00:00 19.2 C 86 % 16.8 C
122 29-07-2016 10:05:00 19.2 C 86 % 16.8 C
123 29-07-2016 10:10:00 19.3 C 87 % 17.08 C
124 29-07-2016 10:15:00 19.3 C 88 % 17.26 C
125 29-07-2016 10:20:00 19.3 C 88 % 17.26 C
Sensor: Nr:Datum:Temp:Feuchte:Taupunkt:
Aussen-T/F 126 29-07-2016 10:25:00 19.3 C 88 % 17.26 C
127 29-07-2016 10:30:00 19.3 C 88 % 17.26 C
128 29-07-2016 10:35:00 19.3 C 88 % 17.26 C
129 29-07-2016 10:40:00 19.3 C 88 % 17.26 C
130 29-07-2016 10:45:00 19.3 C 89 % 17.44 C
131 29-07-2016 10:50:00 19.4 C 89 % 17.54 C
132 29-07-2016 10:55:00 19.3 C 89 % 17.44 C
133 29-07-2016 11:00:00 19.3 C 90 % 17.62 C
134 29-07-2016 11:05:00 19.4 C 91 % 17.89 C
135 29-07-2016 11:10:00 19.4 C 91 % 17.89 C
136 29-07-2016 11:15:00 19.4 C 91 % 17.89 C
137 29-07-2016 11:20:00 19.5 C 91 % 17.99 C
138 29-07-2016 11:25:00 19.5 C 91 % 17.99 C
139 29-07-2016 11:30:00 19.4 C 91 % 17.89 C
140 29-07-2016 11:35:00 19.5 C 91 % 17.99 C
141 29-07-2016 11:40:00 19.7 C 92 % 18.36 C
142 29-07-2016 11:45:00 19.9 C 92 % 18.56 C
143 29-07-2016 11:50:00 19.9 C 90 % 18.21 C
144 29-07-2016 11:55:00 20.1 C 90 % 18.41 C
145 29-07-2016 12:00:00 20.2 C 90 % 18.51 C
146 29-07-2016 12:05:00 20.4 C 90 % 18.7 C
147 29-07-2016 12:10:00 20.4 C 88 % 18.34 C
148 29-07-2016 12:15:00 20.7 C 90 % 19 C
149 29-07-2016 12:20:00 20.9 C 91 % 19.37 C
150 29-07-2016 12:25:00 21 C 90 % 19.3 C
Sensor: Nr:Datum:Temp:Feuchte:Taupunkt:
Aussen-T/F 151 29-07-2016 12:30:00 21.1 C 87 % 18.85 C
152 29-07-2016 12:35:00 21.2 C 87 % 18.95 C
153 29-07-2016 12:40:00 21.3 C 89 % 19.41 C
154 29-07-2016 12:45:00 21.4 C 85 % 18.77 C
155 29-07-2016 12:50:00 21.7 C 83 % 18.69 C
156 29-07-2016 12:55:00 22 C 83 % 18.98 C
157 29-07-2016 13:00:00 22.3 C 81 % 18.88 C
158 29-07-2016 13:05:00 22.4 C 79 % 18.58 C
159 29-07-2016 13:10:00 22.3 C 80 % 18.68 C
160 29-07-2016 13:15:00 22.3 C 80 % 18.68 C
161 29-07-2016 13:20:00 22.4 C 81 % 18.98 C
162 29-07-2016 13:25:00 22.6 C 83 % 19.56 C
163 29-07-2016 13:30:00 22.8 C 80 % 19.17 C
164 29-07-2016 13:35:00 22.9 C 79 % 19.06 C
165 29-07-2016 13:40:00 22.9 C 76 % 18.44 C
166 29-07-2016 13:45:00 23.1 C 77 % 18.85 C
167 29-07-2016 13:50:00 23.3 C 78 % 19.25 C
168 29-07-2016 13:55:00 23.4 C 73 % 18.28 C
169 29-07-2016 14:00:00 23.6 C 73 % 18.48 C
170 29-07-2016 14:05:00 23.6 C 73 % 18.48 C
171 29-07-2016 14:10:00 23.7 C 75 % 19 C
172 29-07-2016 14:15:00 23.9 C 71 % 18.32 C
173 29-07-2016 14:20:00 24.1 C 71 % 18.51 C
174 29-07-2016 14:25:00 24.2 C 71 % 18.61 C
175 29-07-2016 14:30:00 24.3 C 72 % 18.93 C
Sensor: Nr:Datum:Temp:Feuchte:Taupunkt:
Aussen-T/F 176 29-07-2016 14:35:00 24.4 C 68 % 18.11 C
177 29-07-2016 14:40:00 24.7 C 72 % 19.31 C
178 29-07-2016 14:45:00 24.8 C 70 % 18.95 C
179 29-07-2016 14:50:00 25.1 C 67 % 18.54 C
180 29-07-2016 14:55:00 25.1 C 67 % 18.54 C
181 29-07-2016 15:00:00 24.8 C 67 % 18.25 C
182 29-07-2016 15:05:00 24.4 C 69 % 18.34 C
183 29-07-2016 15:10:00 24.3 C 69 % 18.25 C
184 29-07-2016 15:15:00 24.3 C 68 % 18.01 C
185 29-07-2016 15:20:00 24.2 C 68 % 17.92 C
186 29-07-2016 15:25:00 24.1 C 68 % 17.82 C
187 29-07-2016 15:30:00 23.8 C 73 % 18.67 C
188 29-07-2016 15:35:00 23.4 C 76 % 18.93 C
189 29-07-2016 15:40:00 22.8 C 77 % 18.56 C
190 29-07-2016 15:45:00 22.6 C 79 % 18.77 C
191 29-07-2016 15:50:00 22.9 C 78 % 18.86 C
192 29-07-2016 15:55:00 23.1 C 75 % 18.43 C
193 29-07-2016 16:00:00 23.4 C 74 % 18.5 C
194 29-07-2016 16:05:00 23.6 C 71 % 18.03 C
195 29-07-2016 16:10:00 23.8 C 70 % 18 C
196 29-07-2016 16:15:00 24.2 C 70 % 18.38 C
197 29-07-2016 16:20:00 24.4 C 69 % 18.34 C
198 29-07-2016 16:25:00 24.4 C 68 % 18.11 C
199 29-07-2016 16:30:00 24.2 C 68 % 17.92 C
200 29-07-2016 16:35:00 23.8 C 71 % 18.22 C
Sensor: Nr:Datum:Temp:Feuchte:Taupunkt:
Aussen-T/F 201 29-07-2016 16:40:00 24.2 C 72 % 18.83 C
202 29-07-2016 16:45:00 24.6 C 69 % 18.53 C
203 29-07-2016 16:50:00 24.8 C 68 % 18.49 C
204 29-07-2016 16:55:00 24.6 C 68 % 18.3 C
205 29-07-2016 17:00:00 24.2 C 69 % 18.15 C
206 29-07-2016 17:05:00 23.9 C 69 % 17.87 C
207 29-07-2016 17:10:00 23.8 C 74 % 18.89 C
208 29-07-2016 17:15:00 23.6 C 75 % 18.91 C
209 29-07-2016 17:20:00 23.3 C 74 % 18.4 C
210 29-07-2016 17:25:00 23.2 C 74 % 18.31 C
211 29-07-2016 17:30:00 23.1 C 75 % 18.43 C
212 29-07-2016 17:35:00 23.2 C 74 % 18.31 C
213 29-07-2016 17:40:00 23.9 C 71 % 18.32 C
214 29-07-2016 17:45:00 24.7 C 68 % 18.4 C
215 29-07-2016 17:50:00 25.4 C 67 % 18.82 C
216 29-07-2016 17:55:00 25.6 C 64 % 18.28 C
217 29-07-2016 18:00:00 25.4 C 68 % 19.06 C
218 29-07-2016 18:05:00 25.1 C 67 % 18.54 C
219 29-07-2016 18:10:00 24.7 C 68 % 18.4 C
220 29-07-2016 18:15:00 24.3 C 70 % 18.48 C
221 29-07-2016 18:20:00 24 C 73 % 18.86 C
222 29-07-2016 18:25:00 23.8 C 74 % 18.89 C
223 29-07-2016 18:30:00 23.5 C 74 % 18.6 C
224 29-07-2016 18:35:00 23.2 C 72 % 17.87 C
225 29-07-2016 18:40:00 23.3 C 71 % 17.75 C
Sensor: Nr:Datum:Temp:Feuchte:Taupunkt:
Aussen-T/F 226 29-07-2016 18:45:00 23.4 C 72 % 18.06 C
227 29-07-2016 18:50:00 23.4 C 72 % 18.06 C
228 29-07-2016 18:55:00 23.4 C 73 % 18.28 C
229 29-07-2016 19:00:00 23.4 C 73 % 18.28 C
230 29-07-2016 19:05:00 23.4 C 74 % 18.5 C
231 29-07-2016 19:10:00 23.2 C 74 % 18.31 C
232 29-07-2016 19:15:00 22.9 C 74 % 18.02 C
233 29-07-2016 19:20:00 22.8 C 75 % 18.14 C
234 29-07-2016 19:25:00 22.7 C 76 % 18.25 C
235 29-07-2016 19:30:00 22.6 C 75 % 17.94 C
236 29-07-2016 19:35:00 22.4 C 75 % 17.75 C
237 29-07-2016 19:40:00 22.3 C 76 % 17.86 C
238 29-07-2016 19:45:00 22.1 C 77 % 17.88 C
239 29-07-2016 19:50:00 22.1 C 78 % 18.08 C
240 29-07-2016 19:55:00 22.3 C 77 % 18.07 C
241 29-07-2016 20:00:00 22.4 C 75 % 17.75 C
242 29-07-2016 20:05:00 22.5 C 73 % 17.42 C
243 29-07-2016 20:10:00 22.5 C 74 % 17.63 C
244 29-07-2016 20:15:00 22.5 C 75 % 17.85 C
245 29-07-2016 20:20:00 22.5 C 76 % 18.06 C
246 29-07-2016 20:25:00 22.4 C 75 % 17.75 C
247 29-07-2016 20:30:00 22.3 C 76 % 17.86 C
248 29-07-2016 20:35:00 22.1 C 76 % 17.67 C
249 29-07-2016 20:40:00 21.8 C 76 % 17.38 C
250 29-07-2016 20:45:00 21.6 C 78 % 17.6 C
Sensor: Nr:Datum:Temp:Feuchte:Taupunkt:
Aussen-T/F 251 29-07-2016 20:50:00 21.3 C 78 % 17.31 C
252 29-07-2016 20:55:00 21.1 C 79 % 17.32 C
253 29-07-2016 21:00:00 20.9 C 80 % 17.32 C
254 29-07-2016 21:05:00 20.7 C 81 % 17.32 C
255 29-07-2016 21:10:00 20.5 C 82 % 17.32 C
256 29-07-2016 21:15:00 20.3 C 82 % 17.13 C
257 29-07-2016 21:20:00 20.1 C 83 % 17.12 C
258 29-07-2016 21:25:00 19.9 C 83 % 16.93 C
259 29-07-2016 21:30:00 19.8 C 84 % 17.02 C
260 29-07-2016 21:35:00 19.6 C 84 % 16.82 C
261 29-07-2016 21:40:00 19.4 C 85 % 16.81 C
262 29-07-2016 21:45:00 19.3 C 85 % 16.72 C
263 29-07-2016 21:50:00 19.1 C 86 % 16.7 C
264 29-07-2016 21:55:00 19 C 86 % 16.6 C
265 29-07-2016 22:00:00 18.9 C 86 % 16.51 C
266 29-07-2016 22:05:00 18.9 C 86 % 16.51 C
267 29-07-2016 22:10:00 18.8 C 87 % 16.59 C
268 29-07-2016 22:15:00 18.8 C 87 % 16.59 C
269 29-07-2016 22:20:00 18.8 C 88 % 16.77 C
270 29-07-2016 22:25:00 18.8 C 88 % 16.77 C
271 29-07-2016 22:30:00 18.9 C 88 % 16.87 C
272 29-07-2016 22:35:00 18.9 C 89 % 17.05 C
273 29-07-2016 22:40:00 18.9 C 89 % 17.05 C
274 29-07-2016 22:45:00 18.9 C 89 % 17.05 C
275 29-07-2016 22:50:00 18.9 C 89 % 17.05 C
Sensor: Nr:Datum:Temp:Feuchte:Taupunkt:
Aussen-T/F 276 29-07-2016 22:55:00 18.8 C 88 % 16.77 C
277 29-07-2016 23:00:00 18.8 C 88 % 16.77 C
278 29-07-2016 23:05:00 18.8 C 88 % 16.77 C
279 29-07-2016 23:10:00 18.8 C 88 % 16.77 C
280 29-07-2016 23:15:00 18.7 C 88 % 16.67 C
281 29-07-2016 23:20:00 18.7 C 88 % 16.67 C
282 29-07-2016 23:25:00 18.7 C 88 % 16.67 C
283 29-07-2016 23:30:00 18.7 C 88 % 16.67 C
284 29-07-2016 23:35:00 18.7 C 89 % 16.85 C
285 29-07-2016 23:40:00 18.7 C 89 % 16.85 C
286 29-07-2016 23:45:00 18.7 C 89 % 16.85 C
287 29-07-2016 23:50:00 18.7 C 89 % 16.85 C
288 29-07-2016 23:55:00 18.7 C 89 % 16.85 C

Legende:
   Min
   Max


Maximal/Minimal-Werte vom 29.07.2016 - 29.07.2016

Sensor Min Max Avg
Temp
(Aussen-T/F)
15.5 °C
29-07-2016  03:30:00
25.6 °C
29-07-2016  17:55:00
19.81 °C
Feuchte
(Aussen-T/F)
64 %
29-07-2016  17:55:00
95 %
29-07-2016  03:55:00
85.13 %
Taupunkt
(Aussen-T/F)
14.37 C
29-07-2016  03:30:00
19.56 C
29-07-2016  13:25:00
17.06 C

Die Daten stammen von einer Davis Vantage Pro 2 Wetter-Station und werden unter Linux mit der Software wview2wettercgi und aufbereitet. Alle Angaben erfolgen ohne Gewähr für ihre Vollständigkeit oder Richtigkeit.
Kontakt: Rainer Krienke krienke@uni-koblenz.de . Meine Webseiten an der Uni Koblenz oder privat.
Version: $Revision: 0.78 $